Time;durP1;ratioP1;P1;durP2;ratioP2;P2;SDS_P1;SDS_P2;PMS_P1;PMS_P2;Temp;Humidity;BMP_temperature;BMP_pressure;BME280_temperature;BME280_humidity;BME280_pressure;Samples;Min_cycle;Max_cycle;Signal;HPM_P1;HPM_P2
2024/03/18 00:00:22;;;;;;;4.47;2.60;;;12.90;99.90;;;;;;5092327;28;20323;-59
2024/03/18 00:02:52;;;;;;;5.67;2.47;;;12.90;99.90;;;;;;5092546;28;20231;-59
2024/03/18 00:05:20;;;;;;;2.20;1.90;;;12.90;99.90;;;;;;5092295;28;20212;-60
2024/03/18 00:07:49;;;;;;;4.23;1.93;;;12.90;99.90;;;;;;5092553;28;20269;-59
2024/03/18 00:10:16;;;;;;;3.17;2.00;;;12.90;99.90;;;;;;5092351;28;20228;-59
2024/03/18 00:12:44;;;;;;;2.20;1.67;;;13.00;99.90;;;;;;5092373;28;20253;-59
2024/03/18 00:15:15;;;;;;;5.83;2.50;;;13.00;99.90;;;;;;5091924;28;20215;-59
2024/03/18 00:17:43;;;;;;;3.43;2.70;;;13.00;99.90;;;;;;5092391;28;20719;-58
2024/03/18 00:20:11;;;;;;;4.13;2.67;;;13.00;99.90;;;;;;5092235;28;20228;-59
2024/03/18 00:22:39;;;;;;;3.10;2.60;;;13.00;99.90;;;;;;5092165;28;20232;-59
2024/03/18 00:25:06;;;;;;;3.93;2.80;;;12.80;99.90;;;;;;5092394;28;20208;-60
2024/03/18 00:27:33;;;;;;;3.87;2.80;;;12.80;99.90;;;;;;5092403;28;20207;-58
2024/03/18 00:30:00;;;;;;;3.77;2.57;;;12.70;99.90;;;;;;5092311;28;20251;-58
2024/03/18 00:32:29;;;;;;;3.87;2.50;;;12.60;99.90;;;;;;5092223;28;20212;-59
2024/03/18 00:34:56;;;;;;;4.80;2.80;;;12.60;99.90;;;;;;5091810;28;20298;-59
2024/03/18 00:37:23;;;;;;;5.00;2.73;;;12.50;99.90;;;;;;5092011;28;20207;-58
2024/03/18 00:39:50;;;;;;;4.07;2.73;;;12.50;99.90;;;;;;5091821;28;20606;-59
2024/03/18 00:42:16;;;;;;;5.33;3.13;;;12.50;99.90;;;;;;5091855;28;20587;-58
2024/03/18 00:44:43;;;;;;;5.30;3.17;;;12.50;99.90;;;;;;5091799;28;20257;-59
2024/03/18 00:47:10;;;;;;;3.77;2.70;;;12.40;99.90;;;;;;5091961;28;20304;-59
2024/03/18 00:49:39;;;;;;;4.27;3.10;;;12.40;99.90;;;;;;5091959;28;20231;-59
2024/03/18 00:52:05;;;;;;;3.20;2.70;;;12.40;99.90;;;;;;5091949;28;20204;-58
2024/03/18 00:54:32;;;;;;;4.07;2.97;;;12.40;99.90;;;;;;5091826;28;20207;-58
2024/03/18 00:56:59;;;;;;;4.70;2.80;;;12.40;99.90;;;;;;5092068;28;20296;-59
2024/03/18 00:59:26;;;;;;;5.27;3.03;;;12.40;99.90;;;;;;5091762;28;20251;-59
2024/03/18 01:01:52;;;;;;;4.67;3.03;;;12.40;99.90;;;;;;5093253;28;20221;-59
2024/03/18 01:04:19;;;;;;;3.93;2.50;;;12.30;99.90;;;;;;5095900;28;20224;-59
2024/03/18 01:06:47;;;;;;;5.27;2.90;;;12.40;99.90;;;;;;5095545;28;20204;-58
2024/03/18 01:09:16;;;;;;;5.60;3.00;;;12.40;99.90;;;;;;5095993;28;20289;-59
2024/03/18 01:11:43;;;;;;;4.47;3.00;;;12.30;99.90;;;;;;5096025;28;20269;-59
2024/03/18 01:14:09;;;;;;;4.33;2.90;;;12.30;99.90;;;;;;5095800;28;20201;-58
2024/03/18 01:16:36;;;;;;;4.00;2.90;;;12.20;99.90;;;;;;5095360;28;20389;-59
2024/03/18 01:19:03;;;;;;;4.73;3.13;;;12.20;99.90;;;;;;5095549;28;20247;-59
2024/03/18 01:21:29;;;;;;;3.93;3.10;;;12.30;99.90;;;;;;5095499;28;20227;-58
2024/03/18 01:23:57;;;;;;;5.10;3.27;;;12.30;99.90;;;;;;5095648;28;20640;-58
2024/03/18 01:26:24;;;;;;;6.17;3.17;;;12.30;99.90;;;;;;5095154;28;20610;-58
2024/03/18 01:28:50;;;;;;;4.83;3.07;;;12.30;99.90;;;;;;5095436;28;20281;-59
2024/03/18 01:31:18;;;;;;;5.67;3.03;;;12.30;99.90;;;;;;5095521;28;20212;-58
2024/03/18 01:33:44;;;;;;;4.47;3.00;;;12.30;99.90;;;;;;5095326;28;20257;-59
2024/03/18 01:36:12;;;;;;;4.13;3.00;;;12.20;99.90;;;;;;5094956;28;20629;-59
2024/03/18 01:38:38;;;;;;;7.00;3.20;;;12.10;99.90;;;;;;5095625;28;20232;-59
2024/03/18 01:41:06;;;;;;;5.50;2.90;;;12.10;99.90;;;;;;5095363;28;20595;-59
2024/03/18 01:43:36;;;;;;;6.23;3.57;;;12.10;99.90;;;;;;5095207;28;20224;-59
2024/03/18 01:46:03;;;;;;;4.97;3.20;;;12.10;99.90;;;;;;5095144;28;20212;-59
2024/03/18 01:48:30;;;;;;;5.53;3.03;;;12.10;99.90;;;;;;5095218;28;20235;-59
2024/03/18 01:50:57;;;;;;;3.80;3.27;;;12.10;99.90;;;;;;5095201;28;20215;-58
2024/03/18 01:53:23;;;;;;;8.33;3.10;;;12.10;99.90;;;;;;5095160;28;20204;-59
2024/03/18 01:55:50;;;;;;;3.53;2.97;;;12.10;99.90;;;;;;5094882;28;20269;-59
2024/03/18 01:58:21;;;;;;;4.73;3.10;;;12.10;99.90;;;;;;5094883;28;20231;-58
2024/03/18 02:00:48;;;;;;;4.00;3.23;;;12.10;99.90;;;;;;5094990;28;20226;-59
2024/03/18 02:03:15;;;;;;;4.43;3.20;;;12.00;99.90;;;;;;5094630;28;20740;-59
2024/03/18 02:05:42;;;;;;;3.33;2.90;;;11.90;99.90;;;;;;5094767;28;20204;-59
2024/03/18 02:08:09;;;;;;;4.93;3.20;;;11.90;99.90;;;;;;5094869;28;20262;-58
2024/03/18 02:10:35;;;;;;;5.17;2.90;;;11.70;99.90;;;;;;5095163;28;20227;-59
2024/03/18 02:13:03;;;;;;;3.20;2.70;;;11.60;99.90;;;;;;5094288;28;20208;-59
2024/03/18 02:15:32;;;;;;;5.63;2.97;;;11.60;99.90;;;;;;5095282;28;20578;-59
2024/03/18 02:17:59;;;;;;;3.33;2.90;;;11.60;99.90;;;;;;5095373;28;20238;-58
2024/03/18 02:20:27;;;;;;;4.77;2.90;;;11.80;99.90;;;;;;5094734;28;20239;-58
2024/03/18 02:22:55;;;;;;;5.63;3.10;;;11.80;99.90;;;;;;5094562;28;20224;-59
2024/03/18 02:25:22;;;;;;;4.17;2.60;;;11.90;99.90;;;;;;5094155;28;20204;-59
2024/03/18 02:27:49;;;;;;;6.00;2.80;;;12.00;99.90;;;;;;5094382;28;20291;-59
2024/03/18 02:30:16;;;;;;;5.30;3.00;;;12.00;99.90;;;;;;5094160;28;20311;-59
2024/03/18 02:32:43;;;;;;;3.27;2.93;;;12.10;99.90;;;;;;5094544;28;20208;-59
2024/03/18 02:35:13;;;;;;;3.47;2.67;;;12.10;99.90;;;;;;5094257;28;20212;-59
2024/03/18 02:37:40;;;;;;;5.53;3.07;;;12.20;99.90;;;;;;5094951;28;20218;-58
2024/03/18 02:40:09;;;;;;;6.07;3.00;;;12.20;99.90;;;;;;5094634;28;20734;-58
2024/03/18 02:42:36;;;;;;;3.97;3.07;;;12.30;99.90;;;;;;5094646;28;20208;-59
2024/03/18 02:45:05;;;;;;;5.20;2.93;;;12.20;99.90;;;;;;5094928;28;20232;-58
2024/03/18 02:47:32;;;;;;;5.33;3.03;;;12.20;99.90;;;;;;5094923;28;20208;-58
2024/03/18 02:49:59;;;;;;;4.37;3.10;;;12.20;99.90;;;;;;5094822;28;20224;-58
2024/03/18 02:52:25;;;;;;;3.67;3.00;;;12.10;99.90;;;;;;5094063;28;20215;-59
2024/03/18 02:54:52;;;;;;;4.80;3.20;;;12.10;99.90;;;;;;5094146;28;20208;-58
2024/03/18 02:57:20;;;;;;;3.97;3.30;;;12.10;99.90;;;;;;5093744;28;20582;-59
2024/03/18 02:59:47;;;;;;;6.93;3.37;;;12.20;99.90;;;;;;5093731;28;20322;-59
2024/03/18 03:02:13;;;;;;;6.20;3.53;;;12.20;99.90;;;;;;5093644;28;20571;-59
2024/03/18 03:04:40;;;;;;;6.17;3.17;;;12.20;99.90;;;;;;5093406;28;20232;-59
2024/03/18 03:07:09;;;;;;;5.67;3.03;;;12.20;99.90;;;;;;5093647;28;20200;-58
2024/03/18 03:09:36;;;;;;;5.53;3.07;;;12.20;99.90;;;;;;5093563;28;20607;-59
2024/03/18 03:12:02;;;;;;;5.60;2.97;;;12.20;99.90;;;;;;5093579;28;20213;-60
2024/03/18 03:14:30;;;;;;;4.13;2.97;;;12.20;99.90;;;;;;5093466;28;20204;-59
2024/03/18 03:16:57;;;;;;;4.97;3.27;;;12.20;99.90;;;;;;5093481;28;20249;-58
2024/03/18 03:19:26;;;;;;;5.87;3.83;;;12.20;99.90;;;;;;5093425;28;20223;-59
2024/03/18 03:21:53;;;;;;;5.20;3.10;;;12.20;99.90;;;;;;5093278;28;20236;-59
2024/03/18 03:24:20;;;;;;;5.40;3.60;;;12.20;99.90;;;;;;5092646;28;20323;-58
2024/03/18 03:26:47;;;;;;;5.17;3.37;;;12.20;99.90;;;;;;5092131;28;20658;-59
2024/03/18 03:29:14;;;;;;;4.73;3.43;;;12.20;99.90;;;;;;5093188;28;20250;-59
2024/03/18 03:31:42;;;;;;;5.73;2.93;;;12.20;99.90;;;;;;5093141;28;20302;-59
2024/03/18 03:34:09;;;;;;;3.90;2.90;;;12.10;99.90;;;;;;5093065;28;20410;-59
2024/03/18 03:36:39;;;;;;;5.73;2.93;;;12.10;99.90;;;;;;5092788;28;20207;-58
2024/03/18 03:39:06;;;;;;;4.63;3.20;;;12.00;99.90;;;;;;5092916;28;20682;-59
2024/03/18 03:41:32;;;;;;;5.57;3.27;;;12.00;99.90;;;;;;5093148;28;20650;-58
2024/03/18 03:43:59;;;;;;;4.73;3.30;;;12.00;99.90;;;;;;5092932;28;20235;-59
2024/03/18 03:46:26;;;;;;;3.20;2.80;;;11.90;99.90;;;;;;5092597;28;20212;-59
2024/03/18 03:48:54;;;;;;;4.97;3.23;;;11.90;99.90;;;;;;5092893;28;20638;-59
2024/03/18 03:51:20;;;;;;;6.13;3.10;;;11.90;99.90;;;;;;5092558;28;20212;-58
2024/03/18 03:53:47;;;;;;;5.47;3.20;;;11.90;99.90;;;;;;5092839;28;20325;-59
2024/03/18 03:56:14;;;;;;;5.30;3.20;;;11.90;99.90;;;;;;5092605;28;20587;-58
2024/03/18 03:58:46;;;;;;;3.93;3.00;;;11.90;99.90;;;;;;5092736;28;20251;-59
2024/03/18 04:01:12;;;;;;;4.50;3.00;;;11.70;99.90;;;;;;5092521;28;20619;-58
2024/03/18 04:03:39;;;;;;;5.63;3.10;;;11.50;99.90;;;;;;5092419;28;20247;-59
2024/03/18 04:06:07;;;;;;;7.00;2.97;;;11.50;99.90;;;;;;5092185;28;20208;-59
2024/03/18 04:08:34;;;;;;;4.80;3.07;;;11.50;99.90;;;;;;5092594;28;20228;-59
2024/03/18 04:11:00;;;;;;;6.60;3.07;;;11.40;99.90;;;;;;5092531;28;20226;-59
2024/03/18 04:13:27;;;;;;;3.77;3.03;;;11.40;99.90;;;;;;5092491;28;20601;-59
2024/03/18 04:15:54;;;;;;;4.87;3.00;;;11.30;99.90;;;;;;5092219;28;20216;-59
2024/03/18 04:18:21;;;;;;;5.50;2.97;;;11.30;99.90;;;;;;5092122;28;20208;-58
2024/03/18 04:20:48;;;;;;;4.90;3.40;;;11.30;99.90;;;;;;5092203;28;20211;-59
2024/03/18 04:23:16;;;;;;;5.23;3.17;;;11.20;99.90;;;;;;5092298;28;20307;-59
2024/03/18 04:25:43;;;;;;;3.97;2.97;;;11.00;99.90;;;;;;5092338;28;20211;-59
2024/03/18 04:28:09;;;;;;;5.30;3.00;;;11.00;99.90;;;;;;5092124;28;20406;-58
2024/03/18 04:30:37;;;;;;;7.30;3.27;;;11.00;99.90;;;;;;5092168;28;20208;-59
2024/03/18 04:33:06;;;;;;;3.33;2.70;;;11.10;99.90;;;;;;5092135;28;20291;-58
2024/03/18 04:35:32;;;;;;;4.50;3.00;;;11.20;99.90;;;;;;5091927;28;20204;-59
2024/03/18 04:37:59;;;;;;;3.13;2.70;;;11.20;99.90;;;;;;5091956;28;20242;-59
2024/03/18 04:40:28;;;;;;;3.60;3.20;;;11.20;99.90;;;;;;5092021;28;20228;-59
2024/03/18 04:42:55;;;;;;;5.80;3.30;;;11.30;99.90;;;;;;5092175;28;20215;-59
2024/03/18 04:45:23;;;;;;;6.87;2.80;;;11.40;99.90;;;;;;5091691;28;20220;-60
2024/03/18 04:47:51;;;;;;;8.80;3.80;;;11.40;99.90;;;;;;5091791;28;20235;-58
2024/03/18 04:50:21;;;;;;;3.10;2.80;;;11.40;99.90;;;;;;5092014;28;20269;-59
2024/03/18 04:52:49;;;;;;;5.77;3.50;;;11.40;99.90;;;;;;5091879;28;20207;-59
2024/03/18 04:55:16;;;;;;;5.07;3.57;;;11.40;99.90;;;;;;5091716;28;20200;-59
2024/03/18 04:57:44;;;;;;;4.10;3.23;;;11.40;99.90;;;;;;5091910;28;20208;-58
2024/03/18 05:00:14;;;;;;;5.17;3.37;;;11.40;99.90;;;;;;5091767;28;20243;-58
2024/03/18 05:02:41;;;;;;;5.53;3.00;;;11.30;99.90;;;;;;5092189;28;20212;-58
2024/03/18 05:05:09;;;;;;;4.17;3.47;;;11.40;99.90;;;;;;5091647;28;20318;-59
2024/03/18 05:07:36;;;;;;;7.47;3.90;;;11.40;99.90;;;;;;5091645;28;20208;-59
2024/03/18 05:10:04;;;;;;;6.57;3.57;;;11.50;99.90;;;;;;5091789;28;20223;-59
2024/03/18 05:12:30;;;;;;;3.70;3.00;;;11.50;99.90;;;;;;5091721;28;20233;-59
2024/03/18 05:14:59;;;;;;;5.80;3.30;;;11.60;99.90;;;;;;5091388;28;20200;-58
2024/03/18 05:17:26;;;;;;;5.37;3.33;;;11.60;99.90;;;;;;5091785;28;20204;-59
2024/03/18 05:19:53;;;;;;;6.43;3.37;;;11.70;99.90;;;;;;5091850;28;20228;-59
2024/03/18 05:22:20;;;;;;;5.40;3.60;;;11.70;99.90;;;;;;5091989;28;20204;-59
2024/03/18 05:24:48;;;;;;;6.70;3.70;;;11.70;99.90;;;;;;5091438;28;20281;-59
2024/03/18 05:27:16;;;;;;;3.77;3.20;;;11.80;99.90;;;;;;5091596;28;20204;-59
2024/03/18 05:29:43;;;;;;;6.03;3.50;;;11.90;99.90;;;;;;5091854;28;20231;-59
2024/03/18 05:32:13;;;;;;;3.73;3.27;;;11.90;99.90;;;;;;5091930;28;20402;-58
2024/03/18 05:34:40;;;;;;;7.53;3.50;;;11.90;99.90;;;;;;5092753;28;20236;-58
2024/03/18 05:37:07;;;;;;;4.60;3.10;;;11.90;99.90;;;;;;5092560;28;20212;-58
2024/03/18 05:39:34;;;;;;;3.27;2.97;;;12.00;99.90;;;;;;5092426;28;20252;-58
2024/03/18 05:42:00;;;;;;;5.60;3.87;;;12.00;99.90;;;;;;5091303;28;20219;-58
2024/03/18 05:44:27;;;;;;;5.40;3.23;;;12.10;99.90;;;;;;5091702;28;20512;-58
2024/03/18 05:46:54;;;;;;;6.20;3.33;;;12.10;99.90;;;;;;5091406;28;20200;-58
2024/03/18 05:49:22;;;;;;;5.17;3.17;;;12.10;99.90;;;;;;5093255;28;20261;-58
2024/03/18 05:51:49;;;;;;;6.50;3.20;;;12.10;99.90;;;;;;5094981;28;20677;-58
2024/03/18 05:54:16;;;;;;;4.57;3.27;;;12.10;99.90;;;;;;5095002;28;20201;-58
2024/03/18 05:56:43;;;;;;;5.70;4.00;;;12.10;99.90;;;;;;5094940;28;20236;-58
2024/03/18 05:59:10;;;;;;;4.13;3.20;;;12.10;99.90;;;;;;5094774;28;20263;-59
2024/03/18 06:01:39;;;;;;;4.13;3.10;;;12.20;99.90;;;;;;5094682;28;20212;-59
2024/03/18 06:04:06;;;;;;;5.10;3.90;;;12.20;99.90;;;;;;5094663;28;20228;-59
2024/03/18 06:06:34;;;;;;;4.97;3.43;;;12.20;99.90;;;;;;5094377;28;20204;-59
2024/03/18 06:09:01;;;;;;;4.30;3.07;;;12.20;99.90;;;;;;5094505;28;20236;-59
2024/03/18 06:11:28;;;;;;;5.07;3.13;;;12.20;99.90;;;;;;5094937;28;20205;-59
2024/03/18 06:13:55;;;;;;;7.77;3.97;;;12.20;99.90;;;;;;5095074;28;20204;-58
2024/03/18 06:16:22;;;;;;;5.67;3.43;;;12.30;99.90;;;;;;5094445;28;20298;-63
2024/03/18 06:18:50;;;;;;;6.70;3.90;;;12.30;99.90;;;;;;5094635;28;20228;-58
2024/03/18 06:21:17;;;;;;;5.43;4.00;;;12.30;99.90;;;;;;5094633;28;20685;-56
2024/03/18 06:23:48;;;;;;;6.53;3.57;;;12.40;99.90;;;;;;5094353;28;20215;-56
2024/03/18 06:26:13;;;;;;;6.87;3.77;;;12.40;99.90;;;;;;5094573;28;20204;-57
2024/03/18 06:28:41;;;;;;;17.43;15.07;;;12.50;99.90;;;;;;5094665;28;20567;-57
2024/03/18 06:31:07;;;;;;;4.80;3.20;;;12.60;99.90;;;;;;5094742;28;20212;-55
2024/03/18 06:33:34;;;;;;;5.07;3.50;;;12.70;99.90;;;;;;5094554;28;20238;-57
2024/03/18 06:36:07;;;;;;;4.60;3.13;;;12.80;99.90;;;;;;5094002;28;20204;-57
2024/03/18 06:38:34;;;;;;;7.10;3.77;;;12.90;99.90;;;;;;5094350;28;20224;-56
2024/03/18 06:41:02;;;;;;;4.10;3.53;;;12.90;99.90;;;;;;5094428;28;20219;-57
2024/03/18 06:43:29;;;;;;;7.60;3.33;;;13.00;99.90;;;;;;5094191;28;20211;-57
2024/03/18 06:45:56;;;;;;;5.27;4.37;;;13.00;99.90;;;;;;5093777;28;20228;-56
2024/03/18 06:48:22;;;;;;;11.93;4.20;;;13.00;99.90;;;;;;5094020;28;20208;-56
2024/03/18 06:50:49;;;;;;;4.73;3.60;;;13.00;99.90;;;;;;5093891;28;20208;-57
2024/03/18 06:53:16;;;;;;;6.30;3.63;;;13.00;99.90;;;;;;5094055;28;20201;-56
2024/03/18 06:55:44;;;;;;;5.67;3.80;;;13.10;99.90;;;;;;5093528;28;20283;-57
2024/03/18 06:58:14;;;;;;;6.17;3.67;;;13.10;99.90;;;;;;5093494;28;20666;-56
2024/03/18 07:00:42;;;;;;;6.80;3.47;;;13.20;99.90;;;;;;5093864;28;20312;-56
2024/03/18 07:03:09;;;;;;;9.07;3.40;;;13.30;99.90;;;;;;5093415;28;20717;-56
2024/03/18 07:05:35;;;;;;;7.63;3.50;;;13.30;99.90;;;;;;5093267;28;20224;-57
2024/03/18 07:08:02;;;;;;;9.63;4.40;;;13.40;99.90;;;;;;5093416;28;20574;-56
2024/03/18 07:10:29;;;;;;;6.00;3.40;;;13.50;99.90;;;;;;5093474;28;20227;-56
2024/03/18 07:12:56;;;;;;;6.23;4.13;;;13.50;99.90;;;;;;5093654;28;20215;-56
2024/03/18 07:15:24;;;;;;;4.90;3.50;;;13.50;99.90;;;;;;5093322;28;20200;-56
2024/03/18 07:17:51;;;;;;;3.23;2.73;;;13.50;99.90;;;;;;5093374;28;20212;-56
2024/03/18 07:20:17;;;;;;;4.90;2.93;;;13.50;99.90;;;;;;5093273;28;20228;-56
2024/03/18 07:22:44;;;;;;;5.33;3.07;;;13.50;99.90;;;;;;5093008;28;20262;-56
2024/03/18 07:25:17;;;;;;;5.93;3.80;;;13.50;99.90;;;;;;5092936;28;20232;-56
2024/03/18 07:27:44;;;;;;;6.43;3.50;;;13.60;99.90;;;;;;5093393;28;20208;-56
2024/03/18 07:30:13;;;;;;;4.77;3.73;;;13.60;99.90;;;;;;5092841;28;20315;-56
2024/03/18 07:32:41;;;;;;;6.60;4.63;;;13.50;99.90;;;;;;5092806;28;20253;-57
2024/03/18 07:35:09;;;;;;;5.80;3.83;;;13.60;99.90;;;;;;5092760;28;20572;-57
2024/03/18 07:37:36;;;;;;;6.60;4.57;;;13.60;99.90;;;;;;5093014;28;20215;-56
2024/03/18 07:40:05;;;;;;;7.10;4.47;;;13.70;99.90;;;;;;5092811;28;20662;-56
2024/03/18 07:42:32;;;;;;;4.53;3.90;;;13.70;99.90;;;;;;5092734;28;20208;-56
2024/03/18 07:44:59;;;;;;;4.93;3.93;;;13.50;99.90;;;;;;5092462;28;20736;-57
2024/03/18 07:47:26;;;;;;;6.70;5.50;;;13.30;99.90;;;;;;5092669;28;20690;-57
2024/03/18 07:49:55;;;;;;;4.53;3.70;;;13.30;99.90;;;;;;5093213;28;20231;-57
2024/03/18 07:52:21;;;;;;;5.10;3.63;;;13.40;99.90;;;;;;5092673;28;20211;-56
2024/03/18 07:54:48;;;;;;;7.47;4.10;;;13.50;99.90;;;;;;5092306;28;20207;-57
2024/03/18 07:57:15;;;;;;;5.47;3.80;;;13.60;99.90;;;;;;5092361;28;20240;-56
2024/03/18 07:59:41;;;;;;;6.90;3.60;;;13.70;99.90;;;;;;5092377;28;20236;-56
2024/03/18 08:02:08;;;;;;;6.00;3.40;;;13.80;99.90;;;;;;5092597;28;20257;-57
2024/03/18 08:04:35;;;;;;;7.13;3.50;;;13.80;99.90;;;;;;5092017;28;20220;-56
2024/03/18 08:07:04;;;;;;;4.97;3.53;;;13.90;99.90;;;;;;5092474;28;20466;-56
2024/03/18 08:09:31;;;;;;;5.73;3.57;;;14.00;99.90;;;;;;5092840;28;20282;-57
2024/03/18 08:11:58;;;;;;;5.83;3.60;;;14.00;99.90;;;;;;5091560;28;20700;-57
2024/03/18 08:14:24;;;;;;;4.90;3.90;;;14.00;99.90;;;;;;5092346;28;20204;-56
2024/03/18 08:16:51;;;;;;;7.30;3.80;;;14.10;99.90;;;;;;5092011;28;20258;-56
2024/03/18 08:19:18;;;;;;;6.27;3.77;;;14.20;99.90;;;;;;5092083;28;20224;-56
2024/03/18 08:21:44;;;;;;;4.93;3.80;;;14.30;99.90;;;;;;5092166;28;20211;-57
2024/03/18 08:24:12;;;;;;;5.70;3.80;;;14.30;99.90;;;;;;5091995;28;20618;-57
2024/03/18 08:26:39;;;;;;;4.73;3.50;;;14.40;99.90;;;;;;5091573;28;20701;-57
2024/03/18 08:29:06;;;;;;;5.30;3.50;;;14.50;99.90;;;;;;5092034;28;20622;-56
2024/03/18 08:31:32;;;;;;;6.57;3.70;;;14.30;99.90;;;;;;5091693;28;20670;-57
2024/03/18 08:33:58;;;;;;;6.00;3.40;;;14.00;99.90;;;;;;5091998;28;20570;-56
2024/03/18 08:36:25;;;;;;;7.77;4.10;;;14.00;99.90;;;;;;5091728;28;20207;-57
2024/03/18 08:38:53;;;;;;;6.57;4.00;;;14.10;99.90;;;;;;5091666;28;20227;-56
2024/03/18 08:41:21;;;;;;;9.23;4.00;;;14.30;99.90;;;;;;5092109;28;20212;-57
2024/03/18 08:43:48;;;;;;;5.60;4.23;;;14.50;99.90;;;;;;5091959;28;20204;-57
2024/03/18 08:46:15;;;;;;;8.43;4.17;;;14.60;99.90;;;;;;5091540;28;20231;-56
2024/03/18 08:48:42;;;;;;;7.00;4.03;;;14.60;99.90;;;;;;5091793;28;20297;-56
2024/03/18 08:51:09;;;;;;;6.73;4.33;;;14.60;99.90;;;;;;5091899;28;20292;-57
2024/03/18 08:53:36;;;;;;;5.33;4.03;;;14.60;99.90;;;;;;5091642;28;20231;-57
2024/03/18 08:56:03;;;;;;;7.20;4.03;;;14.60;99.90;;;;;;5091679;28;20307;-56
2024/03/18 08:58:31;;;;;;;5.97;4.50;;;14.60;99.90;;;;;;5091547;28;20249;-57
2024/03/18 09:00:57;;;;;;;10.10;4.33;;;14.60;99.90;;;;;;5091669;28;20226;-56
2024/03/18 09:03:24;;;;;;;8.70;4.37;;;14.60;99.90;;;;;;5091866;28;20212;-56
2024/03/18 09:05:55;;;;;;;8.33;3.97;;;14.70;99.90;;;;;;5091548;28;20217;-57
2024/03/18 09:08:22;;;;;;;5.87;4.23;;;14.80;99.90;;;;;;5091416;28;20682;-56
2024/03/18 09:10:49;;;;;;;6.60;4.23;;;14.80;99.90;;;;;;5091919;28;20492;-56
2024/03/18 09:13:16;;;;;;;10.10;4.83;;;14.90;99.90;;;;;;5091810;28;20204;-56
2024/03/18 09:15:44;;;;;;;9.33;4.30;;;14.80;99.90;;;;;;5091179;28;20253;-56
2024/03/18 09:18:11;;;;;;;5.10;3.97;;;14.90;99.90;;;;;;5091399;28;20230;-57
2024/03/18 09:20:39;;;;;;;7.63;4.40;;;14.90;99.90;;;;;;5091449;28;20212;-57
2024/03/18 09:23:07;;;;;;;5.93;4.07;;;14.90;99.90;;;;;;5092856;28;20295;-57
2024/03/18 09:25:34;;;;;;;9.47;4.10;;;14.90;99.90;;;;;;5095246;28;20461;-56
2024/03/18 09:28:00;;;;;;;6.60;4.40;;;14.90;99.90;;;;;;5095229;28;20232;-57
2024/03/18 09:30:28;;;;;;;9.20;4.37;;;14.90;99.90;;;;;;5095665;28;20231;-56
2024/03/18 09:32:56;;;;;;;6.00;4.37;;;15.00;99.90;;;;;;5095475;28;20207;-56
2024/03/18 09:35:23;;;;;;;4.63;4.20;;;15.20;99.90;;;;;;5095133;28;20200;-56
2024/03/18 09:37:50;;;;;;;6.60;4.30;;;15.30;99.90;;;;;;5095496;28;20242;-57
2024/03/18 09:40:17;;;;;;;7.97;5.47;;;15.50;99.90;;;;;;5095434;28;20311;-56
2024/03/18 09:42:44;;;;;;;7.00;4.20;;;15.70;99.90;;;;;;5095605;28;20291;-57
2024/03/18 09:45:15;;;;;;;7.43;4.03;;;15.70;99.90;;;;;;5095139;28;20232;-57
2024/03/18 09:47:43;;;;;;;6.57;3.90;;;15.50;99.90;;;;;;5095153;28;20298;-57
2024/03/18 09:50:15;;;;;;;7.27;4.10;;;15.40;99.90;;;;;;5095607;28;20224;-57
2024/03/18 09:52:43;;;;;;;5.03;3.53;;;15.30;99.90;;;;;;5095388;28;20259;-56
2024/03/18 09:55:21;;;;;;;4.00;3.63;;;15.30;99.90;;;;;;5094990;28;20200;-57
2024/03/18 09:57:48;;;;;;;14.37;10.07;;;15.50;99.90;;;;;;5095219;28;20295;-56
2024/03/18 10:00:15;;;;;;;5.18;3.92;;;15.60;99.90;;;;;;5095146;28;20239;-56
2024/03/18 10:02:41;;;;;;;7.03;3.78;;;15.70;99.90;;;;;;5095130;28;20253;-56
2024/03/18 10:05:09;;;;;;;5.83;3.43;;;15.50;99.90;;;;;;5094819;28;20204;-56
2024/03/18 10:07:39;;;;;;;5.70;3.43;;;15.30;99.90;;;;;;5095192;28;20636;-56
2024/03/18 10:10:14;;;;;;;6.60;4.60;;;15.10;99.90;;;;;;5094929;28;20504;-56
2024/03/18 10:12:42;;;;;;;6.07;3.53;;;15.10;99.90;;;;;;5094765;28;20419;-57
2024/03/18 10:15:11;;;;;;;7.57;4.30;;;15.00;99.90;;;;;;5095124;28;20235;-56
2024/03/18 10:17:38;;;;;;;6.10;4.28;;;14.90;99.90;;;;;;5094911;28;20696;-57
2024/03/18 10:20:18;;;;;;;5.13;4.35;;;14.70;99.90;;;;;;5094571;28;20781;-57
2024/03/18 10:22:46;;;;;;;9.55;4.70;;;14.70;99.90;;;;;;5094791;28;20287;-57
2024/03/18 10:25:16;;;;;;;11.52;5.10;;;14.90;99.90;;;;;;5094275;28;20212;-57
2024/03/18 10:27:43;;;;;;;11.30;4.93;;;15.20;99.90;;;;;;5094668;28;20295;-56
2024/03/18 10:30:12;;;;;;;9.37;4.80;;;15.20;99.90;;;;;;5094388;28;20247;-57
2024/03/18 10:32:40;;;;;;;6.00;4.00;;;15.20;99.90;;;;;;5094666;28;20205;-55
2024/03/18 10:35:17;;;;;;;7.73;4.47;;;15.30;99.90;;;;;;5093709;28;20291;-56
2024/03/18 10:37:47;;;;;;;6.00;4.30;;;15.10;99.90;;;;;;5094436;28;20215;-56
2024/03/18 10:40:27;;;;;;;7.23;4.90;;;15.30;99.90;;;;;;5094316;28;20725;-56
2024/03/18 10:42:59;;;;;;;7.33;4.93;;;15.40;99.90;;;;;;5094438;28;20204;-56
2024/03/18 10:45:28;;;;;;;8.52;4.90;;;15.60;99.90;;;;;;5093974;28;20231;-57
2024/03/18 10:47:54;;;;;;;5.10;4.30;;;15.80;99.90;;;;;;5094589;28;20556;-56
2024/03/18 10:50:23;;;;;;;5.95;4.18;;;16.00;99.90;;;;;;5094158;28;20227;-57
2024/03/18 10:52:50;;;;;;;8.60;4.83;;;16.20;99.90;;;;;;5094396;28;20208;-56
2024/03/18 10:55:18;;;;;;;7.65;4.70;;;16.20;99.90;;;;;;5094232;28;20247;-56
2024/03/18 10:57:47;;;;;;;5.28;4.38;;;16.20;99.90;;;;;;5094796;28;20619;-56
2024/03/18 11:00:18;;;;;;;5.25;4.32;;;15.80;99.90;;;;;;5094337;28;20231;-57
2024/03/18 11:02:56;;;;;;;7.93;5.32;;;15.80;99.90;;;;;;5094620;28;20339;-56
2024/03/18 11:05:25;;;;;;;5.63;4.20;;;16.10;99.90;;;;;;5094462;28;20680;-56
2024/03/18 11:07:55;;;;;;;4.93;4.07;;;16.20;99.90;;;;;;5094604;28;20196;-56
2024/03/18 11:10:23;;;;;;;4.75;3.85;;;16.20;99.90;;;;;;5093645;28;20232;-56
2024/03/18 11:12:50;;;;;;;4.65;4.13;;;16.10;99.90;;;;;;5093554;28;20227;-56
2024/03/18 11:15:19;;;;;;;6.35;4.47;;;16.30;99.90;;;;;;5093124;28;20208;-57
2024/03/18 11:17:48;;;;;;;7.32;4.60;;;16.50;99.90;;;;;;5094015;28;20589;-57
2024/03/18 11:20:16;;;;;;;7.75;4.65;;;16.70;99.90;;;;;;5093700;28;20227;-57
2024/03/18 11:22:48;;;;;;;4.63;4.05;;;16.60;99.90;;;;;;5093680;28;20258;-56
2024/03/18 11:25:18;;;;;;;8.43;5.00;;;16.50;99.90;;;;;;5092900;28;20203;-57
2024/03/18 11:27:49;;;;;;;5.95;4.35;;;16.30;99.90;;;;;;5093307;28;20237;-56
2024/03/18 11:30:27;;;;;;;4.72;4.15;;;16.30;99.90;;;;;;5093515;28;20220;-56
2024/03/18 11:32:54;;;;;;;4.88;4.15;;;16.40;99.90;;;;;;5093425;28;20281;-56
2024/03/18 11:35:21;;;;;;;5.00;4.38;;;16.80;99.90;;;;;;5093139;28;20234;-57
2024/03/18 11:37:48;;;;;;;7.53;4.22;;;17.10;99.90;;;;;;5093012;28;20666;-57
2024/03/18 11:40:18;;;;;;;5.35;3.95;;;17.10;99.90;;;;;;5093372;28;20232;-57
2024/03/18 11:42:45;;;;;;;5.90;4.40;;;17.20;99.90;;;;;;5093457;28;20590;-57
2024/03/18 11:45:19;;;;;;;5.30;3.88;;;17.40;99.90;;;;;;5093270;28;20276;-56
2024/03/18 11:47:46;;;;;;;5.72;4.20;;;17.20;99.90;;;;;;5092375;28;20211;-56
2024/03/18 11:50:13;;;;;;;5.65;4.30;;;16.60;99.90;;;;;;5093150;28;20285;-55
2024/03/18 11:52:42;;;;;;;6.93;3.78;;;16.30;99.90;;;;;;5092902;28;20242;-58
2024/03/18 11:55:14;;;;;;;4.72;4.18;;;16.30;99.90;;;;;;5092693;28;20637;-56
2024/03/18 11:57:43;;;;;;;7.97;3.97;;;16.10;99.90;;;;;;5092967;28;20282;-56
2024/03/18 12:00:12;;;;;;;7.25;4.35;;;15.70;99.90;;;;;;5092976;28;20648;-56
2024/03/18 12:02:41;;;;;;;7.57;4.50;;;15.60;99.90;;;;;;5092664;28;20204;-57
2024/03/18 12:05:09;;;;;;;5.38;3.50;;;15.60;99.90;;;;;;5092100;28;20378;-56
2024/03/18 12:07:36;;;;;;;8.40;5.23;;;15.30;99.90;;;;;;5092667;28;20232;-57
2024/03/18 12:10:04;;;;;;;5.20;4.20;;;15.00;99.90;;;;;;5092481;28;20275;-54
2024/03/18 12:12:32;;;;;;;7.07;3.93;;;14.90;99.90;;;;;;5092486;28;20295;-57
2024/03/18 12:15:02;;;;;;;5.40;3.17;;;14.60;99.90;;;;;;5092259;28;20200;-57
2024/03/18 12:17:29;;;;;;;3.73;3.17;;;14.40;99.90;;;;;;5092384;28;20200;-57
2024/03/18 12:20:00;;;;;;;4.57;3.53;;;14.30;99.90;;;;;;5092402;28;20228;-57
2024/03/18 12:22:29;;;;;;;6.13;3.50;;;14.20;99.90;;;;;;5092374;28;20214;-56
2024/03/18 12:30:31;;;;;;;7.10;3.23;;;14.50;99.90;;;;;;5092225;28;20293;-56
2024/03/18 12:32:59;;;;;;;4.80;2.80;;;14.50;99.90;;;;;;5092049;28;20582;-56
2024/03/18 12:35:27;;;;;;;5.30;2.70;;;14.60;99.90;;;;;;5092009;28;20597;-56
2024/03/18 12:37:54;;;;;;;4.97;3.30;;;14.60;99.90;;;;;;5091911;28;20607;-56
2024/03/18 12:40:22;;;;;;;3.97;2.70;;;14.60;99.90;;;;;;5091903;28;20281;-56
2024/03/18 12:42:49;;;;;;;5.00;2.23;;;14.70;99.90;;;;;;5091922;28;20200;-55
2024/03/18 12:45:15;;;;;;;4.97;2.00;;;15.00;99.90;;;;;;5091966;28;20209;-55
2024/03/18 12:47:43;;;;;;;3.73;2.27;;;15.00;99.90;;;;;;5091992;28;20282;-57
2024/03/18 12:50:17;;;;;;;3.97;2.40;;;15.20;99.90;;;;;;5092009;28;20239;-57
2024/03/18 12:52:43;;;;;;;3.17;2.28;;;15.60;99.90;;;;;;5091786;28;20645;-57